Time;durP1;ratioP1;P1;durP2;ratioP2;P2;SDS_P1;SDS_P2;PMS_P1;PMS_P2;Temp;Humidity;BMP_temperature;BMP_pressure;BME280_temperature;BME280_humidity;BME280_pressure;Samples;Min_cycle;Max_cycle;Signal;HPM_P1;HPM_P2
2022/01/02 00:01:59;;;;;;;21.80;17.45;;;12.40;96.70;;;;;;5072288;28;20040;-73
2022/01/02 00:04:30;;;;;;;24.38;19.02;;;12.40;96.70;;;;;;5078620;28;20040;-73
2022/01/02 00:07:05;;;;;;;20.00;17.55;;;12.40;96.70;;;;;;5074234;28;20150;-73
2022/01/02 00:09:36;;;;;;;23.00;18.77;;;12.40;96.70;;;;;;5082097;28;20068;-73
2022/01/02 00:12:07;;;;;;;25.40;18.60;;;12.50;96.70;;;;;;5081821;28;20261;-73
2022/01/02 00:14:41;;;;;;;24.10;18.52;;;12.40;96.70;;;;;;5075537;28;20048;-73
2022/01/02 00:17:09;;;;;;;21.45;18.00;;;12.40;96.70;;;;;;5071363;28;20043;-73
2022/01/02 00:19:45;;;;;;;22.75;18.17;;;12.30;96.70;;;;;;5072517;28;20054;-73
2022/01/02 00:22:16;;;;;;;21.27;17.57;;;12.30;96.70;;;;;;5069632;28;20036;-73
2022/01/02 00:24:45;;;;;;;20.35;17.58;;;12.40;96.70;;;;;;5082724;28;20671;-73
2022/01/02 00:27:15;;;;;;;19.90;17.00;;;12.40;96.70;;;;;;5070403;28;20573;-73
2022/01/02 00:29:43;;;;;;;21.00;17.33;;;12.40;96.70;;;;;;5081474;28;20343;-73
2022/01/02 00:32:12;;;;;;;20.15;17.08;;;12.40;96.70;;;;;;5073262;28;20057;-73
2022/01/02 00:34:41;;;;;;;22.50;17.10;;;12.40;96.70;;;;;;5058204;28;20055;-73
2022/01/02 00:37:09;;;;;;;23.23;17.13;;;12.40;96.70;;;;;;5059020;28;20032;-73
2022/01/02 00:39:38;;;;;;;21.40;16.92;;;12.40;96.70;;;;;;5078489;28;20043;-73
2022/01/02 00:42:09;;;;;;;21.85;18.15;;;12.40;96.70;;;;;;5065838;28;20036;-73
2022/01/02 00:44:53;;;;;;;20.95;17.70;;;12.40;96.70;;;;;;5078576;28;20040;-73
2022/01/02 00:47:30;;;;;;;22.27;18.70;;;12.40;96.70;;;;;;5076193;28;20553;-73
2022/01/02 00:50:07;;;;;;;22.02;18.75;;;12.40;96.70;;;;;;5099104;27;20035;-73
2022/01/02 00:52:39;;;;;;;27.92;19.15;;;12.40;96.70;;;;;;5097540;28;20044;-72
2022/01/02 00:55:11;;;;;;;22.92;18.38;;;12.40;96.70;;;;;;5053858;28;20059;-73
2022/01/02 00:57:41;;;;;;;24.60;19.17;;;12.40;96.70;;;;;;5075489;28;20033;-73
2022/01/02 01:00:12;;;;;;;23.08;18.40;;;12.40;96.70;;;;;;5071196;28;20044;-73
2022/01/02 01:02:45;;;;;;;24.65;19.30;;;12.40;96.70;;;;;;5074926;28;20036;-73
2022/01/02 01:05:20;;;;;;;24.90;18.80;;;12.30;96.70;;;;;;5074550;28;20048;-73
2022/01/02 01:07:49;;;;;;;25.30;18.60;;;12.40;96.70;;;;;;5069249;28;20043;-73
2022/01/02 01:10:20;;;;;;;26.77;18.42;;;12.40;96.70;;;;;;5067823;28;20102;-73
2022/01/02 01:12:50;;;;;;;23.98;17.90;;;12.30;96.70;;;;;;5061691;28;20474;-73
2022/01/02 01:15:19;;;;;;;23.67;18.80;;;12.30;96.70;;;;;;5070106;28;20613;-73
2022/01/02 01:17:47;;;;;;;23.27;18.55;;;12.30;96.70;;;;;;5082693;28;20044;-73
2022/01/02 01:20:15;;;;;;;23.40;18.75;;;12.40;96.70;;;;;;5078154;28;20048;-73
2022/01/02 01:22:48;;;;;;;22.00;18.55;;;12.40;96.70;;;;;;5073440;28;20048;-73
2022/01/02 01:25:19;;;;;;;23.98;18.38;;;12.40;96.70;;;;;;5078452;28;20078;-73
2022/01/02 01:27:48;;;;;;;22.83;18.38;;;12.40;96.70;;;;;;5066022;28;20139;-73
2022/01/02 01:30:18;;;;;;;22.45;18.23;;;12.40;96.70;;;;;;5075363;28;20445;-73
2022/01/02 01:32:46;;;;;;;22.95;17.73;;;12.40;96.70;;;;;;5084033;28;20501;-73
2022/01/02 01:35:15;;;;;;;22.35;17.92;;;12.40;96.70;;;;;;5072795;28;20059;-73
2022/01/02 01:37:45;;;;;;;21.40;17.38;;;12.40;96.70;;;;;;5068160;28;20056;-73
2022/01/02 01:40:18;;;;;;;24.45;17.83;;;12.40;96.70;;;;;;5070505;28;20606;-73
2022/01/02 01:43:00;;;;;;;22.45;17.75;;;12.40;96.70;;;;;;5069395;28;20416;-73
2022/01/02 01:45:40;;;;;;;22.75;17.15;;;12.40;96.70;;;;;;5099321;28;20048;-73
2022/01/02 01:48:09;;;;;;;20.50;17.42;;;12.40;96.70;;;;;;5053595;28;20563;-73
2022/01/02 01:50:41;;;;;;;20.50;16.17;;;12.40;96.70;;;;;;5080978;28;20048;-73
2022/01/02 01:53:15;;;;;;;;;;;12.40;96.70;;;;;;5073651;28;20047;-73
2022/01/02 01:55:45;;;;;;;22.13;16.77;;;12.40;96.70;;;;;;5061430;28;19924;-73
2022/01/02 01:58:13;;;;;;;19.75;16.05;;;12.40;96.70;;;;;;5075399;28;20074;-73
2022/01/02 02:00:44;;;;;;;17.27;14.55;;;12.40;96.70;;;;;;5073105;28;20107;-73
2022/01/02 02:03:35;;;;;;;18.42;14.85;;;12.40;96.70;;;;;;5071004;28;20106;-73
2022/01/02 02:06:04;;;;;;;17.45;14.70;;;12.40;96.70;;;;;;5062320;28;20589;-73
2022/01/02 02:08:32;;;;;;;16.10;13.07;;;12.30;96.70;;;;;;5074364;28;20051;-73
2022/01/02 02:11:03;;;;;;;17.13;14.15;;;12.30;96.70;;;;;;5071360;28;20067;-73
2022/01/02 02:13:33;;;;;;;16.33;13.07;;;12.30;96.70;;;;;;5074650;28;20048;-73
2022/01/02 02:16:05;;;;;;;17.40;12.88;;;12.30;96.70;;;;;;5073324;28;20439;-73
2022/01/02 02:18:34;;;;;;;16.75;13.55;;;12.30;96.70;;;;;;5078882;28;20044;-73
2022/01/02 02:21:04;;;;;;;15.82;13.27;;;12.30;96.70;;;;;;5075831;28;20048;-73
2022/01/02 02:23:34;;;;;;;17.58;13.93;;;12.30;96.70;;;;;;5078270;28;20036;-73
2022/01/02 02:26:02;;;;;;;17.60;13.02;;;12.30;96.70;;;;;;5078005;28;20056;-73
2022/01/02 02:28:30;;;;;;;17.65;14.43;;;12.30;96.70;;;;;;5078785;28;20139;-73
2022/01/02 02:31:00;;;;;;;15.07;13.00;;;12.30;96.70;;;;;;5069034;28;20106;-72
2022/01/02 02:33:28;;;;;;;14.80;12.82;;;12.30;96.70;;;;;;5077740;28;20040;-73
2022/01/02 02:35:56;;;;;;;16.42;12.15;;;12.30;96.70;;;;;;5070872;28;20068;-73
2022/01/02 02:38:26;;;;;;;14.65;12.85;;;12.30;96.70;;;;;;5077827;28;20473;-73
2022/01/02 02:40:58;;;;;;;15.85;12.73;;;12.30;96.70;;;;;;5077722;28;20102;-73
2022/01/02 02:49:07;;;;;;;15.35;12.65;;;12.30;96.70;;;;;;5069903;28;20059;-73
2022/01/02 02:54:08;;;;;;;15.65;12.35;;;12.30;96.70;;;;;;5070889;28;20050;-73
2022/01/02 02:56:45;;;;;;;14.73;12.65;;;12.30;96.70;;;;;;5073322;28;20055;-73
2022/01/02 02:59:13;;;;;;;15.73;13.32;;;12.20;96.70;;;;;;5070695;28;20041;-73
2022/01/02 03:01:41;;;;;;;15.63;13.05;;;12.20;96.70;;;;;;5068306;28;20102;-72
2022/01/02 03:04:09;;;;;;;16.27;14.57;;;12.20;96.70;;;;;;5073541;28;20048;-73
2022/01/02 03:06:38;;;;;;;17.13;13.05;;;12.20;96.70;;;;;;5075013;28;20127;-72
2022/01/02 03:09:09;;;;;;;15.63;13.45;;;12.10;96.70;;;;;;5077204;28;20513;-73
2022/01/02 03:11:41;;;;;;;15.38;13.35;;;12.20;96.70;;;;;;5070663;28;20040;-73
2022/01/02 03:14:11;;;;;;;14.93;13.05;;;12.20;96.70;;;;;;5067942;28;20058;-72
2022/01/02 03:16:40;;;;;;;13.52;11.93;;;12.20;96.70;;;;;;5073280;28;20044;-73
2022/01/02 03:19:08;;;;;;;14.32;12.82;;;12.20;96.70;;;;;;5064480;28;20587;-73
2022/01/02 03:21:36;;;;;;;16.45;14.07;;;12.20;96.70;;;;;;5076969;28;20080;-72
2022/01/02 03:24:04;;;;;;;15.77;13.45;;;12.10;96.70;;;;;;5063094;28;20521;-72
2022/01/02 03:26:34;;;;;;;15.90;13.45;;;12.10;96.70;;;;;;5075071;28;20106;-73
2022/01/02 03:29:02;;;;;;;16.23;13.77;;;12.10;96.70;;;;;;5069122;28;20051;-73
2022/01/02 03:31:30;;;;;;;15.85;13.05;;;12.10;96.70;;;;;;5074857;28;20544;-72
2022/01/02 03:33:59;;;;;;;18.52;13.82;;;12.10;96.70;;;;;;5069401;28;20277;-73
2022/01/02 03:36:27;;;;;;;15.48;12.95;;;12.10;96.70;;;;;;5083143;28;20040;-72
2022/01/02 03:38:55;;;;;;;16.98;13.43;;;12.10;96.70;;;;;;5057789;28;20472;-73
2022/01/02 03:41:23;;;;;;;16.33;13.20;;;12.10;96.70;;;;;;5081979;28;20044;-72
2022/01/02 03:43:54;;;;;;;15.23;12.57;;;12.20;96.70;;;;;;5068180;28;20086;-73
2022/01/02 03:46:22;;;;;;;18.45;13.75;;;12.20;96.70;;;;;;5077987;28;20101;-73
2022/01/02 03:48:51;;;;;;;14.45;12.85;;;12.20;96.70;;;;;;5053540;28;20383;-72
2022/01/02 03:51:19;;;;;;;13.93;12.10;;;12.20;96.70;;;;;;5081437;28;20048;-72
2022/01/02 03:53:47;;;;;;;14.70;12.52;;;12.20;96.70;;;;;;5074414;28;20086;-72
2022/01/02 03:56:15;;;;;;;15.07;12.63;;;12.10;96.70;;;;;;5067514;28;20426;-72
2022/01/02 03:58:43;;;;;;;13.50;12.05;;;12.10;96.70;;;;;;5077834;28;20085;-72
2022/01/02 04:01:12;;;;;;;13.25;11.65;;;12.10;96.70;;;;;;5069349;28;20056;-73
2022/01/02 04:03:41;;;;;;;16.58;12.05;;;12.10;96.70;;;;;;5079499;28;20554;-73
2022/01/02 04:06:08;;;;;;;12.88;11.27;;;12.10;96.70;;;;;;5080671;28;20392;-72
2022/01/02 04:08:36;;;;;;;11.93;10.68;;;12.10;96.70;;;;;;5075801;28;20055;-73
2022/01/02 04:11:04;;;;;;;13.13;11.73;;;12.10;96.70;;;;;;5078647;28;20040;-72
2022/01/02 04:13:32;;;;;;;13.20;10.80;;;12.10;96.70;;;;;;5078770;28;20506;-73
2022/01/02 04:16:01;;;;;;;11.75;10.27;;;12.10;96.70;;;;;;5074197;28;20440;-72
2022/01/02 04:18:31;;;;;;;13.27;10.40;;;12.10;96.70;;;;;;5078262;28;20441;-72
2022/01/02 04:20:59;;;;;;;13.30;10.60;;;12.10;96.70;;;;;;5071958;28;20509;-72
2022/01/02 04:23:27;;;;;;;12.05;10.13;;;12.10;96.70;;;;;;5077655;28;20557;-73
2022/01/02 04:25:55;;;;;;;13.85;10.50;;;12.10;96.70;;;;;;5073395;28;20044;-73
2022/01/02 04:28:24;;;;;;;13.20;11.15;;;12.00;96.70;;;;;;5069468;28;20048;-72
2022/01/02 04:30:52;;;;;;;12.27;10.40;;;12.00;96.70;;;;;;5057389;28;20047;-72
2022/01/02 04:33:20;;;;;;;12.85;9.65;;;12.00;96.70;;;;;;5075397;28;20033;-73
2022/01/02 04:35:49;;;;;;;13.02;10.43;;;12.00;96.70;;;;;;5083408;28;20493;-72
2022/01/02 04:38:17;;;;;;;11.90;9.68;;;12.00;96.70;;;;;;5077166;28;20036;-73
2022/01/02 04:40:47;;;;;;;10.80;9.70;;;12.00;96.70;;;;;;5081315;28;20637;-73
2022/01/02 04:43:16;;;;;;;12.30;9.38;;;12.10;96.70;;;;;;5078057;28;20044;-72
2022/01/02 04:45:44;;;;;;;12.38;10.02;;;12.10;96.70;;;;;;5070320;28;20044;-72
2022/01/02 04:48:13;;;;;;;12.38;9.43;;;12.10;96.70;;;;;;5089169;28;20047;-73
2022/01/02 04:50:42;;;;;;;12.18;10.00;;;12.10;96.70;;;;;;5069653;28;20393;-72
2022/01/02 04:53:12;;;;;;;10.65;9.02;;;12.10;96.70;;;;;;5077891;28;20047;-73
2022/01/02 04:55:40;;;;;;;10.27;9.10;;;12.10;96.70;;;;;;5070833;28;20055;-73
2022/01/02 04:58:09;;;;;;;11.63;9.50;;;12.10;96.70;;;;;;5077069;28;20047;-73
2022/01/02 05:00:37;;;;;;;10.90;9.70;;;12.10;96.70;;;;;;5072840;28;20071;-72
2022/01/02 05:03:06;;;;;;;11.35;9.30;;;12.10;96.70;;;;;;5076096;28;20032;-73
2022/01/02 05:05:35;;;;;;;12.98;10.35;;;12.00;96.70;;;;;;5078390;28;20101;-73
2022/01/02 05:08:04;;;;;;;13.13;10.25;;;12.10;96.70;;;;;;5077519;28;20068;-73
2022/01/02 05:10:33;;;;;;;14.45;11.45;;;12.10;96.70;;;;;;5081455;28;20398;-73
2022/01/02 05:13:01;;;;;;;13.77;10.93;;;12.00;96.70;;;;;;5080562;28;20044;-72
2022/01/02 05:15:30;;;;;;;15.35;11.80;;;12.00;96.70;;;;;;5076208;28;20358;-72
2022/01/02 05:17:58;;;;;;;13.15;10.18;;;12.00;96.70;;;;;;5075877;28;20050;-72
2022/01/02 05:20:27;;;;;;;12.65;9.25;;;12.00;96.70;;;;;;5077623;28;20107;-72
2022/01/02 05:22:57;;;;;;;10.70;8.70;;;12.00;96.70;;;;;;5077257;28;20050;-73
2022/01/02 05:25:25;;;;;;;11.18;9.38;;;12.00;96.70;;;;;;5072723;28;20135;-73
2022/01/02 05:27:54;;;;;;;12.45;10.07;;;11.90;96.70;;;;;;5066052;28;20044;-73
2022/01/02 05:30:23;;;;;;;11.25;9.02;;;11.90;96.70;;;;;;5075744;28;20114;-72
2022/01/02 05:32:51;;;;;;;9.65;8.45;;;11.90;96.70;;;;;;5068269;28;20469;-72
2022/01/02 05:35:18;;;;;;;9.43;8.15;;;12.00;96.70;;;;;;5074296;28;20044;-73
2022/01/02 05:37:46;;;;;;;9.50;7.43;;;11.90;96.70;;;;;;5070755;28;20043;-72
2022/01/02 05:40:14;;;;;;;10.63;8.32;;;11.90;96.70;;;;;;5057885;28;20501;-72
2022/01/02 05:42:43;;;;;;;12.00;9.27;;;11.90;96.70;;;;;;5072569;28;20123;-72
2022/01/02 05:45:13;;;;;;;9.35;7.93;;;11.90;96.70;;;;;;5054766;28;20048;-72
2022/01/02 05:47:41;;;;;;;10.90;9.32;;;11.90;96.70;;;;;;5077987;28;20146;-72
2022/01/02 05:50:09;;;;;;;9.07;7.35;;;11.90;96.70;;;;;;5069298;28;20045;-72
2022/01/02 05:52:37;;;;;;;11.35;8.27;;;11.90;96.70;;;;;;5072102;28;20036;-72
2022/01/02 05:55:06;;;;;;;10.55;7.57;;;11.90;96.70;;;;;;5074888;28;20580;-73
2022/01/02 05:57:35;;;;;;;10.00;7.53;;;11.90;96.70;;;;;;5085247;28;20042;-72
2022/01/02 06:00:04;;;;;;;7.95;5.93;;;11.80;96.70;;;;;;5075473;28;20036;-72
2022/01/02 06:02:41;;;;;;;7.78;6.53;;;11.80;96.70;;;;;;5074543;28;20075;-73
2022/01/02 06:05:12;;;;;;;8.20;6.25;;;11.80;96.70;;;;;;5098962;28;20451;-72
2022/01/02 06:07:41;;;;;;;7.28;5.93;;;11.80;96.70;;;;;;5065166;28;20056;-72
2022/01/02 06:10:09;;;;;;;6.28;5.45;;;11.80;96.70;;;;;;5063787;28;20036;-72
2022/01/02 06:12:38;;;;;;;6.38;5.43;;;11.70;96.70;;;;;;5068901;28;20469;-73
2022/01/02 06:15:07;;;;;;;6.55;5.38;;;11.80;96.70;;;;;;5071192;28;20052;-73
2022/01/02 06:17:35;;;;;;;7.22;5.65;;;11.70;96.70;;;;;;5071845;28;20443;-72
2022/01/02 06:20:06;;;;;;;7.40;5.60;;;11.70;96.70;;;;;;5073581;28;20169;-72
2022/01/02 06:22:34;;;;;;;6.72;5.38;;;11.70;96.70;;;;;;5074591;28;20056;-73
2022/01/02 06:25:02;;;;;;;6.50;5.78;;;11.70;96.70;;;;;;5075266;28;20060;-73
2022/01/02 06:27:31;;;;;;;5.82;3.80;;;11.70;96.70;;;;;;5061575;28;20048;-72
2022/01/02 06:29:59;;;;;;;6.00;4.32;;;11.70;96.70;;;;;;5074842;28;20398;-72
2022/01/02 06:32:27;;;;;;;4.97;4.35;;;11.70;96.70;;;;;;5078697;28;20040;-72
2022/01/02 06:34:56;;;;;;;6.03;4.82;;;11.70;96.70;;;;;;5069377;28;20044;-72
2022/01/02 06:37:26;;;;;;;4.60;4.00;;;11.70;96.70;;;;;;5073982;28;20135;-73
2022/01/02 06:39:54;;;;;;;4.78;4.10;;;11.70;96.70;;;;;;5070856;28;20094;-72
2022/01/02 06:42:23;;;;;;;5.43;4.07;;;11.70;96.70;;;;;;5074194;28;20413;-72
2022/01/02 06:44:51;;;;;;;5.75;4.20;;;11.70;96.70;;;;;;5072404;28;20098;-72
2022/01/02 06:47:19;;;;;;;5.28;4.43;;;11.70;96.70;;;;;;5071059;28;20055;-72
2022/01/02 06:49:50;;;;;;;4.40;3.80;;;11.70;96.70;;;;;;5065685;28;20052;-73
2022/01/02 06:52:18;;;;;;;5.18;3.70;;;11.70;96.70;;;;;;5071419;28;20028;-72
2022/01/02 06:54:52;;;;;;;5.43;3.75;;;11.70;96.70;;;;;;5072419;28;20052;-72
2022/01/02 06:57:21;;;;;;;4.45;3.70;;;11.70;96.70;;;;;;5068720;28;20497;-72
2022/01/02 06:59:50;;;;;;;5.15;3.65;;;11.70;96.70;;;;;;5069889;28;20502;-73
2022/01/02 07:02:19;;;;;;;4.57;3.50;;;11.70;96.70;;;;;;5079236;28;20048;-72
2022/01/02 07:04:47;;;;;;;5.90;4.22;;;11.80;96.70;;;;;;5079399;28;20072;-73
2022/01/02 07:07:15;;;;;;;4.55;3.53;;;11.80;96.70;;;;;;5082187;28;20036;-72
2022/01/02 07:09:43;;;;;;;4.07;2.90;;;11.80;96.70;;;;;;5074470;28;20032;-72
2022/01/02 07:12:13;;;;;;;4.93;3.80;;;11.80;96.70;;;;;;5078789;28;20064;-72
2022/01/02 07:14:41;;;;;;;3.63;3.28;;;11.80;96.70;;;;;;5084643;28;20051;-73
2022/01/02 07:17:09;;;;;;;4.72;3.70;;;11.80;96.70;;;;;;5075083;28;20423;-72
2022/01/02 07:19:36;;;;;;;5.40;3.53;;;11.80;96.70;;;;;;5077717;28;20039;-72
2022/01/02 07:22:05;;;;;;;6.85;4.43;;;11.80;96.70;;;;;;5060329;28;20051;-72
2022/01/02 07:24:34;;;;;;;7.22;5.15;;;11.80;96.70;;;;;;5070347;28;20036;-72
2022/01/02 07:27:02;;;;;;;7.45;5.50;;;11.80;96.70;;;;;;5079203;28;20051;-73
2022/01/02 07:29:31;;;;;;;5.50;4.30;;;11.80;96.70;;;;;;5077763;28;20346;-73
2022/01/02 07:32:00;;;;;;;6.28;3.92;;;11.80;96.70;;;;;;5080216;28;20055;-73
2022/01/02 07:34:28;;;;;;;6.00;4.13;;;11.80;96.70;;;;;;5072199;28;20043;-72
2022/01/02 07:36:56;;;;;;;7.88;4.43;;;11.80;96.70;;;;;;5074835;28;20040;-73
2022/01/02 07:39:24;;;;;;;7.32;4.65;;;11.80;96.70;;;;;;5077712;28;20048;-72
2022/01/02 07:41:52;;;;;;;5.45;4.18;;;11.70;96.70;;;;;;5078609;28;20467;-72
2022/01/02 07:44:27;;;;;;;5.72;4.22;;;11.70;96.70;;;;;;5077972;28;20073;-72
2022/01/02 07:46:57;;;;;;;7.07;4.50;;;11.80;96.70;;;;;;5071627;28;20036;-72
2022/01/02 07:49:25;;;;;;;5.15;4.10;;;11.80;96.70;;;;;;5081338;28;20044;-72
2022/01/02 07:51:53;;;;;;;6.18;4.28;;;11.80;96.70;;;;;;5053451;28;20041;-73
2022/01/02 07:54:21;;;;;;;5.95;4.45;;;11.80;96.70;;;;;;5073671;28;20040;-72
2022/01/02 07:56:49;;;;;;;5.68;4.60;;;11.80;96.70;;;;;;5072084;28;20055;-72
2022/01/02 07:59:17;;;;;;;5.35;4.28;;;11.80;96.70;;;;;;5077979;28;20036;-72
2022/01/02 08:01:46;;;;;;;5.95;4.75;;;11.90;96.70;;;;;;5079767;28;20040;-72
2022/01/02 08:04:15;;;;;;;9.60;6.55;;;11.90;96.70;;;;;;5075256;28;20044;-72
2022/01/02 08:06:43;;;;;;;6.32;5.22;;;11.90;96.70;;;;;;5077588;28;20068;-73
2022/01/02 08:09:11;;;;;;;10.10;7.05;;;11.90;96.70;;;;;;5080657;28;20089;-72
2022/01/02 08:11:39;;;;;;;19.52;13.85;;;11.90;96.70;;;;;;5076147;28;20040;-72
2022/01/02 08:14:15;;;;;;;9.60;7.20;;;11.80;96.70;;;;;;5072970;28;20094;-72
2022/01/02 08:16:44;;;;;;;9.35;7.68;;;11.80;96.70;;;;;;5069877;28;20093;-72
2022/01/02 08:19:12;;;;;;;9.60;7.40;;;11.80;96.70;;;;;;5077319;28;20042;-72
2022/01/02 08:21:42;;;;;;;9.65;7.38;;;11.90;96.70;;;;;;5077071;28;20044;-72
2022/01/02 08:24:10;;;;;;;7.40;6.13;;;12.00;96.70;;;;;;5078178;28;20052;-73
2022/01/02 08:26:38;;;;;;;6.80;5.65;;;11.90;96.70;;;;;;5077506;28;20468;-73
2022/01/02 08:29:06;;;;;;;6.95;5.07;;;11.90;96.70;;;;;;5077451;28;20040;-73
2022/01/02 08:31:35;;;;;;;6.35;5.47;;;11.90;96.70;;;;;;5083193;28;20505;-73
2022/01/02 08:34:03;;;;;;;6.80;5.22;;;11.90;96.70;;;;;;5082598;28;20426;-72
2022/01/02 08:36:31;;;;;;;5.75;4.93;;;12.00;96.70;;;;;;5075813;28;20661;-73
2022/01/02 08:39:00;;;;;;;7.65;5.18;;;12.00;96.70;;;;;;5082188;28;20500;-72
2022/01/02 08:41:28;;;;;;;7.13;5.10;;;12.00;96.70;;;;;;5067735;28;20036;-72
2022/01/02 08:43:56;;;;;;;7.13;5.15;;;12.00;96.70;;;;;;5078155;28;20047;-73
2022/01/02 08:46:24;;;;;;;5.65;5.00;;;12.10;96.70;;;;;;5069550;28;20047;-72
2022/01/02 08:48:52;;;;;;;5.80;5.10;;;12.10;96.70;;;;;;5077055;28;20039;-72
2022/01/02 08:51:27;;;;;;;7.97;5.65;;;12.10;96.70;;;;;;5075750;28;20416;-73
2022/01/02 08:53:55;;;;;;;6.43;5.47;;;12.10;96.70;;;;;;5075402;28;20043;-72
2022/01/02 08:56:24;;;;;;;5.70;5.07;;;12.20;96.70;;;;;;5071712;28;20477;-72
2022/01/02 08:58:52;;;;;;;6.72;5.57;;;12.20;96.70;;;;;;5074473;28;20040;-73
2022/01/02 09:01:20;;;;;;;6.10;5.50;;;12.20;96.70;;;;;;5075304;28;21108;-73
2022/01/02 09:03:48;;;;;;;6.57;5.50;;;12.20;96.70;;;;;;5077259;28;20048;-73
2022/01/02 09:06:16;;;;;;;6.95;5.63;;;12.20;96.70;;;;;;5062952;28;20478;-72
2022/01/02 09:08:44;;;;;;;6.80;5.40;;;12.20;96.70;;;;;;5081904;28;22039;-72
2022/01/02 09:11:13;;;;;;;7.93;5.90;;;12.30;96.70;;;;;;5080639;28;20066;-72
2022/01/02 09:13:42;;;;;;;7.38;6.13;;;12.30;96.70;;;;;;5080291;28;20128;-72
2022/01/02 09:16:10;;;;;;;7.35;6.32;;;12.30;96.70;;;;;;5077783;28;20036;-72
2022/01/02 09:18:38;;;;;;;6.82;5.70;;;12.40;96.70;;;;;;5080627;28;20075;-72
2022/01/02 09:21:06;;;;;;;9.00;5.80;;;12.40;96.70;;;;;;5078746;28;20052;-72
2022/01/02 09:23:34;;;;;;;9.77;7.05;;;12.40;96.70;;;;;;5073191;28;20130;-72
2022/01/02 09:26:03;;;;;;;9.15;6.63;;;12.40;96.70;;;;;;5070460;28;20048;-72
2022/01/02 09:28:31;;;;;;;9.13;7.10;;;12.40;96.70;;;;;;5075425;28;20393;-72
2022/01/02 09:31:00;;;;;;;9.70;6.32;;;12.40;96.70;;;;;;5080601;28;20540;-72
2022/01/02 09:33:28;;;;;;;9.18;6.50;;;12.40;96.70;;;;;;5069088;28;20036;-73
2022/01/02 09:35:56;;;;;;;7.88;6.38;;;12.40;96.70;;;;;;5076237;28;20036;-72
2022/01/02 09:38:24;;;;;;;9.27;6.57;;;12.40;96.70;;;;;;5071678;28;20238;-72
2022/01/02 09:40:52;;;;;;;8.15;6.95;;;12.40;96.70;;;;;;5074849;28;20637;-73
2022/01/02 09:43:20;;;;;;;8.05;6.43;;;12.40;96.70;;;;;;5076367;28;20512;-72
2022/01/02 09:45:49;;;;;;;7.90;6.90;;;12.40;96.70;;;;;;5076315;28;20050;-72
2022/01/02 09:48:19;;;;;;;9.43;7.45;;;12.40;96.70;;;;;;5067952;28;20069;-72
2022/01/02 09:50:47;;;;;;;9.88;8.63;;;12.50;96.70;;;;;;5080329;28;20498;-72
2022/01/02 09:53:15;;;;;;;11.77;8.77;;;12.50;96.70;;;;;;5079920;28;20036;-73
2022/01/02 09:55:43;;;;;;;10.77;8.82;;;12.50;96.70;;;;;;5079785;28;20032;-72
2022/01/02 09:58:12;;;;;;;10.35;8.93;;;12.40;96.70;;;;;;5063020;28;20051;-72
2022/01/02 10:00:47;;;;;;;10.45;8.57;;;12.40;96.70;;;;;;5073107;28;20516;-73
2022/01/02 10:03:16;;;;;;;11.85;9.73;;;12.40;96.70;;;;;;5065776;28;20118;-72
2022/01/02 10:06:04;;;;;;;12.02;9.73;;;12.40;96.70;;;;;;5079630;28;20076;-72
2022/01/02 10:08:36;;;;;;;12.60;9.80;;;12.40;96.70;;;;;;5067616;28;20047;-72
2022/01/02 10:11:08;;;;;;;11.27;8.90;;;12.40;96.70;;;;;;5075148;28;20067;-72
2022/01/02 10:13:42;;;;;;;11.15;8.65;;;12.40;96.70;;;;;;5069772;28;20043;-72
2022/01/02 10:16:23;;;;;;;12.35;11.05;;;12.50;96.70;;;;;;5080414;28;20521;-72
2022/01/02 10:18:53;;;;;;;12.45;10.35;;;12.40;96.70;;;;;;5074408;28;20093;-73
2022/01/02 10:21:31;;;;;;;18.23;13.93;;;12.40;96.70;;;;;;5075022;28;20125;-72
2022/01/02 10:24:22;;;;;;;15.88;12.98;;;12.50;96.70;;;;;;5074913;28;20044;-72
2022/01/02 10:27:11;;;;;;;12.88;11.18;;;12.40;96.70;;;;;;5071904;28;20118;-72
2022/01/02 10:29:41;;;;;;;16.58;11.63;;;12.40;96.70;;;;;;5078991;28;20047;-72
2022/01/02 10:32:32;;;;;;;13.98;11.50;;;12.40;96.70;;;;;;5070245;28;20044;-72
2022/01/02 10:35:12;;;;;;;17.92;13.55;;;12.40;96.70;;;;;;5075626;28;20060;-72
2022/01/02 10:37:43;;;;;;;17.15;12.50;;;12.40;96.70;;;;;;5070594;28;20070;-72
2022/01/02 10:40:32;;;;;;;17.02;12.68;;;12.40;96.70;;;;;;5071558;28;20048;-72
2022/01/02 10:43:02;;;;;;;13.38;10.75;;;12.40;96.70;;;;;;5076152;28;20048;-72
2022/01/02 10:45:33;;;;;;;14.98;12.30;;;12.40;96.70;;;;;;5074030;28;20083;-73
2022/01/02 10:48:01;;;;;;;16.70;11.50;;;12.50;96.70;;;;;;5070699;28;20090;-72
2022/01/02 10:50:35;;;;;;;15.70;10.77;;;12.50;96.70;;;;;;5074805;28;20101;-72
2022/01/02 10:53:16;;;;;;;12.68;10.82;;;12.40;96.70;;;;;;5073827;28;20048;-72
2022/01/02 10:55:45;;;;;;;12.65;10.45;;;12.40;96.70;;;;;;5097429;28;20040;-72
2022/01/02 10:58:14;;;;;;;13.32;10.73;;;12.40;96.70;;;;;;5075009;28;20116;-72
2022/01/02 11:00:43;;;;;;;13.80;11.38;;;12.40;96.70;;;;;;5065057;28;20056;-72
2022/01/02 11:03:16;;;;;;;12.10;9.95;;;12.40;96.70;;;;;;5079404;28;20044;-72
2022/01/02 11:05:47;;;;;;;13.18;10.35;;;12.50;96.70;;;;;;5069406;28;20122;-72
2022/01/02 11:08:19;;;;;;;13.57;10.13;;;12.50;96.70;;;;;;5070170;28;20693;-72
2022/01/02 11:10:48;;;;;;;12.57;10.23;;;12.50;96.70;;;;;;5072045;28;20048;-72
2022/01/02 11:13:18;;;;;;;12.98;10.15;;;12.50;96.70;;;;;;5073091;28;20405;-72
2022/01/02 11:15:46;;;;;;;12.65;10.77;;;12.40;96.70;;;;;;5078833;28;20043;-72
2022/01/02 11:18:15;;;;;;;12.63;10.23;;;12.50;96.70;;;;;;5069331;28;20051;-73
2022/01/02 11:20:44;;;;;;;12.80;9.85;;;12.50;96.70;;;;;;5078412;28;20290;-72
2022/01/02 11:23:20;;;;;;;12.32;10.48;;;12.50;96.70;;;;;;5071662;28;20036;-73
2022/01/02 11:26:02;;;;;;;13.63;10.60;;;12.60;96.70;;;;;;5068466;28;20434;-72
2022/01/02 11:28:37;;;;;;;12.50;10.50;;;12.70;96.70;;;;;;5067872;28;20514;-73
2022/01/02 11:31:07;;;;;;;16.42;12.60;;;12.70;96.70;;;;;;5078967;28;20093;-73
2022/01/02 11:33:37;;;;;;;14.48;11.82;;;12.70;96.70;;;;;;5073339;28;20047;-73
2022/01/02 11:36:24;;;;;;;12.90;11.52;;;12.70;96.70;;;;;;5075109;28;20044;-72
2022/01/02 11:39:03;;;;;;;11.60;10.38;;;12.70;96.70;;;;;;5069480;28;20036;-72
2022/01/02 11:41:39;;;;;;;14.40;11.57;;;12.70;96.70;;;;;;5073457;28;20053;-72
2022/01/02 11:44:09;;;;;;;12.73;11.00;;;12.80;96.70;;;;;;5079944;28;20775;-73
2022/01/02 11:46:47;;;;;;;12.95;11.32;;;12.80;96.70;;;;;;5056459;28;20076;-73
2022/01/02 11:49:21;;;;;;;12.43;10.65;;;12.80;96.70;;;;;;5073834;28;20033;-72
2022/01/02 11:52:28;;;;;;;15.35;12.35;;;12.80;96.70;;;;;;5077425;28;20049;-73
2022/01/02 11:54:58;;;;;;;17.40;13.23;;;12.70;96.70;;;;;;5076837;28;20416;-72
2022/01/02 11:57:43;;;;;;;13.35;11.45;;;12.70;96.70;;;;;;5079467;28;20071;-73
2022/01/02 12:00:18;;;;;;;13.20;10.70;;;12.70;96.70;;;;;;5080284;28;20072;-72
2022/01/02 12:02:46;;;;;;;13.73;11.05;;;12.70;96.70;;;;;;5077807;28;20690;-72
2022/01/02 12:05:15;;;;;;;12.38;11.02;;;12.70;96.70;;;;;;5074081;28;20102;-72
2022/01/02 12:07:50;;;;;;;15.90;12.20;;;12.70;96.70;;;;;;5076725;28;20076;-72
2022/01/02 12:10:31;;;;;;;17.27;14.43;;;12.70;96.70;;;;;;5076685;28;20047;-72
2022/01/02 12:16:06;;;;;;;14.70;12.38;;;12.70;96.70;;;;;;5079509;28;20055;-72
2022/01/02 12:18:53;;;;;;;16.85;13.20;;;12.70;96.70;;;;;;5077744;28;20555;-72
2022/01/02 12:21:21;;;;;;;;;;;12.80;96.70;;;;;;5073571;28;20366;-73
2022/01/02 12:23:56;;;;;;;15.38;12.18;;;12.80;96.70;;;;;;5075210;28;19927;-73
2022/01/02 12:26:31;;;;;;;14.38;11.68;;;12.80;96.70;;;;;;5055263;28;20052;-72
2022/01/02 12:29:02;;;;;;;16.63;13.80;;;12.80;96.70;;;;;;5076813;28;20056;-72
2022/01/02 12:31:32;;;;;;;16.52;14.07;;;12.80;96.70;;;;;;5075663;28;20052;-72
2022/01/02 12:34:10;;;;;;;15.65;12.70;;;12.80;96.70;;;;;;5072804;28;20399;-73
2022/01/02 12:36:43;;;;;;;15.88;12.90;;;12.80;96.70;;;;;;5073128;28;20040;-72
2022/01/02 12:39:14;;;;;;;15.63;12.70;;;12.80;96.70;;;;;;5081937;28;20048;-72
2022/01/02 12:41:44;;;;;;;19.08;14.40;;;12.80;96.70;;;;;;5068026;28;20075;-73
2022/01/02 12:44:15;;;;;;;16.35;12.50;;;12.80;96.70;;;;;;5079158;28;20097;-73
2022/01/02 12:46:47;;;;;;;15.77;12.93;;;12.90;96.70;;;;;;5068406;28;20106;-72
2022/01/02 12:49:19;;;;;;;17.52;13.32;;;12.90;96.70;;;;;;5083479;28;20036;-73
2022/01/02 12:51:49;;;;;;;16.25;12.95;;;12.90;96.70;;;;;;5070562;28;20508;-72
2022/01/02 12:54:19;;;;;;;17.13;13.23;;;12.90;96.70;;;;;;5073536;28;20409;-73
2022/01/02 12:56:51;;;;;;;21.73;15.00;;;12.80;96.70;;;;;;5077555;28;20077;-72
2022/01/02 12:59:22;;;;;;;16.92;13.50;;;12.90;96.70;;;;;;5067782;28;20532;-72
2022/01/02 13:01:52;;;;;;;18.95;15.15;;;12.90;96.70;;;;;;5076194;28;20048;-73
2022/01/02 13:04:24;;;;;;;17.88;14.70;;;12.80;96.70;;;;;;5079138;28;20050;-72